createdAt,value
2019-01-31T00:01:02.252Z,97200.55
2019-01-31T00:04:14.957Z,97202.66
2019-01-31T00:07:20.945Z,97197.43
2019-01-31T00:10:20.420Z,97192.39
2019-01-31T00:14:05.886Z,97187.69
2019-01-31T00:17:26.238Z,97193.70
2019-01-31T00:20:35.069Z,97192.11
2019-01-31T00:23:47.675Z,97199.47
2019-01-31T00:26:51.455Z,97195.45
2019-01-31T00:30:11.512Z,97192.84
2019-01-31T00:33:11.313Z,97195.15
2019-01-31T00:36:07.422Z,97190.72
2019-01-31T00:39:25.994Z,97192.61
2019-01-31T00:42:32.269Z,97194.92
2019-01-31T00:45:28.254Z,97199.08
2019-01-31T00:48:33.537Z,97204.73
2019-01-31T00:51:38.039Z,97200.72
2019-01-31T00:54:38.988Z,97204.14
2019-01-31T00:57:20.452Z,97203.84
2019-01-31T01:00:34.778Z,97213.08
2019-01-31T01:03:37.043Z,97205.53
2019-01-31T01:06:17.343Z,97203.50
2019-01-31T01:09:08.115Z,97206.93
2019-01-31T01:11:57.561Z,97207.93
2019-01-31T01:15:22.119Z,97211.44
2019-01-31T01:18:22.517Z,97211.61
2019-01-31T01:21:15.846Z,97205.45
2019-01-31T01:24:14.547Z,97202.64
2019-01-31T01:27:29.605Z,97207.15
2019-01-31T01:30:39.339Z,97211.24
2019-01-31T01:33:50.920Z,97209.04
2019-01-31T01:36:49.690Z,97213.97
2019-01-31T01:40:06.274Z,97201.61
2019-01-31T01:43:17.560Z,97210.77
2019-01-31T01:46:34.992Z,97208.30
2019-01-31T01:49:24.999Z,97208.41
2019-01-31T01:52:37.432Z,97208.91
2019-01-31T01:55:18.968Z,97211.44
2019-01-31T01:58:38.256Z,97202.42
2019-01-31T02:01:42.922Z,97201.72
2019-01-31T02:05:05.902Z,97203.53
2019-01-31T02:08:09.171Z,97198.74
2019-01-31T02:11:20.050Z,97195.92
2019-01-31T02:14:34.030Z,97193.14
2019-01-31T02:17:37.465Z,97183.09
2019-01-31T02:20:30.259Z,97183.50
2019-01-31T02:23:31.892Z,97189.16
2019-01-31T02:26:57.099Z,97183.64
2019-01-31T02:30:06.004Z,97179.72
2019-01-31T02:32:52.764Z,97182.33
2019-01-31T02:36:09.374Z,97183.91
2019-01-31T02:39:42.411Z,97179.72
2019-01-31T02:42:45.631Z,97177.69
2019-01-31T02:46:06.389Z,97177.38
2019-01-31T02:49:23.135Z,97178.99
2019-01-31T02:52:45.215Z,97178.80
2019-01-31T02:55:42.451Z,97171.14
2019-01-31T02:58:45.047Z,97169.08
2019-01-31T03:01:27.033Z,97167.56
2019-01-31T03:04:57.374Z,97172.13
2019-01-31T03:08:10.900Z,97169.12
2019-01-31T03:11:09.601Z,97163.71
2019-01-31T03:14:10.761Z,97171.70
2019-01-31T03:17:09.326Z,97170.91
2019-01-31T03:20:17.895Z,97170.65
2019-01-31T03:23:09.389Z,97167.22
2019-01-31T03:26:23.671Z,97155.38
2019-01-31T03:29:32.891Z,97160.92
2019-01-31T03:32:31.597Z,97154.11
2019-01-31T03:35:30.782Z,97161.05
2019-01-31T03:38:31.561Z,97154.74
2019-01-31T03:41:40.427Z,97162.72
2019-01-31T03:44:26.216Z,97151.05
2019-01-31T03:47:30.657Z,97151.67
2019-01-31T03:50:19.004Z,97157.40
2019-01-31T03:53:50.385Z,97152.89
2019-01-31T03:56:40.873Z,97148.19
2019-01-31T03:59:25.637Z,97145.67
2019-01-31T04:02:36.067Z,97140.05
2019-01-31T04:05:35.694Z,97138.64
2019-01-31T04:08:08.055Z,97142.09
2019-01-31T04:10:41.569Z,97136.86
2019-01-31T04:13:15.346Z,97131.23
2019-01-31T04:15:48.618Z,97130.85
2019-01-31T04:18:20.231Z,97132.75
2019-01-31T04:20:51.553Z,97129.00
2019-01-31T04:23:25.610Z,97131.02
2019-01-31T04:25:58.458Z,97131.52
2019-01-31T04:28:32.526Z,97133.63
2019-01-31T04:31:04.615Z,97134.03
2019-01-31T04:33:37.659Z,97133.02
2019-01-31T04:36:09.549Z,97133.09
2019-01-31T04:38:44.222Z,97132.39
2019-01-31T04:41:17.645Z,97128.77
2019-01-31T04:43:51.208Z,97129.56
2019-01-31T04:46:22.473Z,97122.20
2019-01-31T04:48:55.684Z,97124.78
2019-01-31T04:51:28.627Z,97127.87
2019-01-31T04:54:00.579Z,97122.95
2019-01-31T04:56:31.894Z,97124.56
2019-01-31T04:59:05.848Z,97125.55
2019-01-31T05:01:37.149Z,97126.68
2019-01-31T05:04:10.854Z,97132.59
2019-01-31T05:06:44.764Z,97136.33
2019-01-31T05:09:18.794Z,97139.33
2019-01-31T05:11:52.987Z,97140.73
2019-01-31T05:14:25.692Z,97135.73
2019-01-31T05:16:57.707Z,97139.25
2019-01-31T05:19:29.029Z,97137.25
2019-01-31T05:22:02.782Z,97142.77
2019-01-31T05:24:36.807Z,97139.86
2019-01-31T05:27:11.080Z,97146.19
2019-01-31T05:29:42.519Z,97144.78
2019-01-31T05:32:14.672Z,97147.53
2019-01-31T05:34:46.862Z,97148.30
2019-01-31T05:37:19.899Z,97149.57
2019-01-31T05:39:53.641Z,97154.73
2019-01-31T05:42:25.037Z,97157.56
2019-01-31T05:44:58.797Z,97151.84
2019-01-31T05:47:31.841Z,97158.04
2019-01-31T05:50:08.055Z,97159.34
2019-01-31T05:52:39.884Z,97160.05
2019-01-31T05:55:14.871Z,97152.23
2019-01-31T05:57:48.145Z,97149.08
2019-01-31T06:00:29.793Z,97152.13
2019-01-31T06:03:01.935Z,97160.26
2019-01-31T06:05:33.512Z,97154.45
2019-01-31T06:08:04.920Z,97153.44
2019-01-31T06:10:39.700Z,97156.03
2019-01-31T06:13:12.540Z,97155.52
2019-01-31T06:15:46.059Z,97154.60
2019-01-31T06:18:18.001Z,97153.73
2019-01-31T06:20:51.417Z,97153.13
2019-01-31T06:23:22.878Z,97152.52
2019-01-31T06:25:55.999Z,97157.87
2019-01-31T06:28:30.052Z,97159.23
2019-01-31T06:31:05.652Z,97159.92
2019-01-31T06:33:37.241Z,97159.00
2019-01-31T06:36:11.177Z,97166.75
2019-01-31T06:38:45.178Z,97171.52
2019-01-31T06:41:18.869Z,97166.71
2019-01-31T06:43:50.085Z,97176.31
2019-01-31T06:46:22.225Z,97179.03
2019-01-31T06:48:55.174Z,97179.32
2019-01-31T06:51:28.152Z,97179.95
2019-01-31T06:54:01.951Z,97179.21
2019-01-31T06:56:35.430Z,97179.50
2019-01-31T06:59:08.222Z,97183.78
2019-01-31T07:01:39.686Z,97180.56
2019-01-31T07:04:13.199Z,97187.25
2019-01-31T07:06:44.657Z,97184.30
2019-01-31T07:09:18.389Z,97184.16
2019-01-31T07:11:51.399Z,97181.94
2019-01-31T07:14:22.691Z,97181.84
2019-01-31T07:16:57.960Z,97186.30
2019-01-31T07:19:30.694Z,97183.26
2019-01-31T07:22:04.407Z,97184.20
2019-01-31T07:24:38.477Z,97183.93
2019-01-31T07:27:13.007Z,97185.19
2019-01-31T07:29:46.527Z,97190.59
2019-01-31T07:32:20.822Z,97187.13
2019-01-31T07:34:54.606Z,97185.06
2019-01-31T07:37:28.422Z,97183.48
2019-01-31T07:40:02.559Z,97181.55
2019-01-31T07:42:34.336Z,97179.05
2019-01-31T07:45:14.306Z,97174.92
2019-01-31T07:47:46.713Z,97174.71
2019-01-31T07:50:20.837Z,97170.53
2019-01-31T07:52:54.433Z,97171.05
2019-01-31T07:55:28.600Z,97169.54
2019-01-31T07:58:01.676Z,97172.57
2019-01-31T08:00:33.671Z,97177.65
2019-01-31T08:03:07.665Z,97166.14
2019-01-31T08:05:41.644Z,97173.31
2019-01-31T08:08:15.648Z,97169.11
2019-01-31T08:10:51.069Z,97171.13
2019-01-31T08:13:24.846Z,97167.29
2019-01-31T08:15:59.358Z,97168.41
2019-01-31T08:18:31.633Z,97168.72
2019-01-31T08:21:05.743Z,97169.58
2019-01-31T08:23:38.507Z,97166.37
2019-01-31T08:26:10.172Z,97166.37
2019-01-31T08:28:43.635Z,97163.36
2019-01-31T08:31:17.785Z,97164.69
2019-01-31T08:33:51.702Z,97160.94
2019-01-31T08:36:23.189Z,97160.16
2019-01-31T08:38:57.747Z,97165.66
2019-01-31T08:41:30.558Z,97158.92
2019-01-31T08:44:05.027Z,97165.17
2019-01-31T08:46:38.862Z,97169.97
2019-01-31T08:49:13.023Z,97169.38
2019-01-31T08:51:46.679Z,97168.56
2019-01-31T08:54:20.393Z,97173.27
2019-01-31T08:56:51.973Z,97177.31
2019-01-31T08:59:25.639Z,97173.61
2019-01-31T09:01:59.761Z,97172.55
2019-01-31T09:04:35.338Z,97161.09
2019-01-31T09:07:07.979Z,97158.03
2019-01-31T09:09:40.762Z,97161.91
2019-01-31T09:12:15.387Z,97152.86
2019-01-31T09:14:45.805Z,97154.20
2019-01-31T09:17:21.517Z,97151.94
2019-01-31T09:19:53.927Z,97150.61
2019-01-31T09:23:03.408Z,97156.89
2019-01-31T09:26:19.279Z,97150.13
2019-01-31T09:29:12.953Z,97170.32
2019-01-31T09:32:09.696Z,97172.38
2019-01-31T09:35:20.927Z,97179.73
2019-01-31T09:38:53.353Z,97185.17
2019-01-31T09:41:56.369Z,97184.20
2019-01-31T09:45:24.378Z,97184.25
2019-01-31T09:48:30.249Z,97186.14
2019-01-31T09:51:42.876Z,97186.27
2019-01-31T09:54:30.615Z,97188.11
2019-01-31T09:57:35.389Z,97183.73
2019-01-31T10:00:44.953Z,97185.11
2019-01-31T10:03:48.062Z,97182.92
2019-01-31T10:07:29.586Z,97176.05
2019-01-31T10:10:48.202Z,97179.56
2019-01-31T10:13:52.888Z,97177.07
2019-01-31T10:16:55.135Z,97172.42
2019-01-31T10:19:58.745Z,97170.86
2019-01-31T10:22:45.607Z,97163.70
2019-01-31T10:26:04.291Z,97165.76
2019-01-31T10:29:14.147Z,97170.12
2019-01-31T10:32:18.253Z,97162.02
2019-01-31T10:35:16.230Z,97154.48
2019-01-31T10:38:32.353Z,97155.90
2019-01-31T10:41:33.068Z,97150.41
2019-01-31T10:44:57.511Z,97141.73
2019-01-31T10:47:39.961Z,97135.55
2019-01-31T10:50:42.136Z,97132.65
2019-01-31T10:54:02.154Z,97126.03
2019-01-31T10:57:16.802Z,97127.70
2019-01-31T11:00:25.400Z,97126.53
2019-01-31T11:03:35.459Z,97123.75
2019-01-31T11:06:33.447Z,97118.51
2019-01-31T11:10:01.737Z,97110.94
2019-01-31T11:13:11.228Z,97099.54
2019-01-31T11:16:24.947Z,97107.00
2019-01-31T11:19:50.675Z,97113.48
2019-01-31T11:23:00.268Z,97106.16
2019-01-31T11:26:16.962Z,97105.55
2019-01-31T11:29:48.518Z,97104.91
2019-01-31T11:33:22.623Z,97100.68
2019-01-31T11:36:34.856Z,97102.30
2019-01-31T11:39:39.225Z,97104.43
2019-01-31T11:42:50.792Z,97087.02
2019-01-31T11:45:52.136Z,97078.20
2019-01-31T11:48:58.853Z,97081.48
2019-01-31T11:52:07.219Z,97075.32
2019-01-31T11:55:21.796Z,97079.17
2019-01-31T11:58:49.593Z,97066.52
2019-01-31T12:01:22.715Z,97075.98
2019-01-31T12:03:57.687Z,97071.58
2019-01-31T12:06:31.406Z,97071.55
2019-01-31T12:09:08.174Z,97066.22
2019-01-31T12:11:41.535Z,97067.91
2019-01-31T12:14:15.599Z,97066.82
2019-01-31T12:16:49.491Z,97062.11
2019-01-31T12:19:21.612Z,97061.52
2019-01-31T12:21:55.905Z,97063.82
2019-01-31T12:24:28.524Z,97059.55
2019-01-31T12:27:02.681Z,97062.88
2019-01-31T12:29:36.622Z,97065.31
2019-01-31T12:32:09.615Z,97057.81
2019-01-31T12:34:43.551Z,97052.17
2019-01-31T12:37:15.655Z,97055.55
2019-01-31T12:39:48.605Z,97046.78
2019-01-31T12:42:21.179Z,97051.37
2019-01-31T12:44:53.564Z,97033.91
2019-01-31T12:47:26.606Z,97039.50
2019-01-31T12:49:58.799Z,97036.59
2019-01-31T12:52:31.800Z,97036.64
2019-01-31T12:55:04.455Z,97032.97
2019-01-31T12:57:37.841Z,97030.81
2019-01-31T13:00:15.583Z,97022.19
2019-01-31T13:02:48.805Z,97027.70
2019-01-31T13:05:20.163Z,97026.28
2019-01-31T13:07:53.918Z,97029.03
2019-01-31T13:10:25.765Z,97020.74
2019-01-31T13:12:59.003Z,97019.02
2019-01-31T13:15:30.345Z,97022.36
2019-01-31T13:18:04.460Z,97016.23
2019-01-31T13:20:39.456Z,97009.30
2019-01-31T13:23:12.578Z,97011.45
2019-01-31T13:25:45.157Z,96984.55
2019-01-31T13:28:16.784Z,97011.84
2019-01-31T13:30:50.793Z,97016.95
2019-01-31T13:33:22.297Z,97003.83
2019-01-31T13:35:55.757Z,97003.25
2019-01-31T13:38:29.965Z,97003.38
2019-01-31T13:41:04.261Z,97006.22
2019-01-31T13:43:37.956Z,97012.83
2019-01-31T13:46:11.901Z,97009.30
2019-01-31T13:48:44.955Z,97006.94
2019-01-31T13:51:16.949Z,97008.73
2019-01-31T13:53:50.976Z,97008.28
2019-01-31T13:56:22.488Z,97004.63
2019-01-31T13:58:56.032Z,97006.32
2019-01-31T14:01:29.013Z,97000.30
2019-01-31T14:04:00.977Z,97001.31
2019-01-31T14:06:35.056Z,96999.48
2019-01-31T14:09:09.316Z,97005.55
2019-01-31T14:11:42.940Z,97005.78
2019-01-31T14:14:17.018Z,97006.75
2019-01-31T14:16:48.361Z,97004.61
2019-01-31T14:19:22.339Z,96999.25
2019-01-31T14:21:56.288Z,97004.03
2019-01-31T14:24:30.148Z,96998.09
2019-01-31T14:27:01.963Z,96990.27
2019-01-31T14:29:35.376Z,96994.98
2019-01-31T14:32:09.157Z,96989.38
2019-01-31T14:34:41.252Z,96986.79
2019-01-31T14:37:13.614Z,96996.16
2019-01-31T14:39:47.305Z,96898.06
2019-01-31T14:42:18.822Z,96988.10
2019-01-31T14:44:50.219Z,96987.45
2019-01-31T14:47:22.838Z,96982.31
2019-01-31T14:49:54.356Z,96988.78
2019-01-31T14:52:26.206Z,96985.71
2019-01-31T14:54:59.396Z,96981.45
2019-01-31T14:57:33.291Z,96979.99
2019-01-31T15:00:10.651Z,96988.43
2019-01-31T15:02:41.922Z,96983.95
2019-01-31T15:05:16.760Z,96991.69
2019-01-31T15:07:49.447Z,96985.83
2019-01-31T15:10:24.885Z,96986.61
2019-01-31T15:12:57.670Z,96987.12
2019-01-31T15:15:29.437Z,96987.35
2019-01-31T15:18:02.221Z,96989.89
2019-01-31T15:20:41.056Z,96978.56
2019-01-31T15:23:13.738Z,96991.77
2019-01-31T15:25:47.589Z,96984.28
2019-01-31T15:28:20.541Z,96990.66
2019-01-31T15:30:51.814Z,96979.48
2019-01-31T15:33:23.095Z,96983.98
2019-01-31T15:35:56.620Z,96982.84
2019-01-31T15:38:30.432Z,96989.80
2019-01-31T15:41:06.314Z,96984.42
2019-01-31T15:43:38.618Z,96988.36
2019-01-31T15:46:12.501Z,96992.36
2019-01-31T15:48:43.815Z,96997.91
2019-01-31T15:51:17.618Z,96996.73
2019-01-31T15:53:49.026Z,96999.66
2019-01-31T15:56:22.818Z,97004.28
2019-01-31T15:58:56.725Z,97014.17
2019-01-31T16:01:29.662Z,97003.98
2019-01-31T16:04:03.664Z,97006.59
2019-01-31T16:06:35.107Z,97007.91
2019-01-31T16:09:09.875Z,97007.11
2019-01-31T16:11:41.327Z,97002.54
2019-01-31T16:14:13.794Z,97002.98
2019-01-31T16:16:47.548Z,97006.61
2019-01-31T16:19:19.635Z,97006.55
2019-01-31T16:21:52.732Z,97004.16
2019-01-31T16:24:25.775Z,97008.37
2019-01-31T16:26:57.762Z,97012.61
2019-01-31T16:29:30.153Z,97012.05
2019-01-31T16:32:02.615Z,97011.74
2019-01-31T16:34:34.795Z,97011.17
2019-01-31T16:37:09.301Z,97022.97
2019-01-31T16:39:40.720Z,97030.27
2019-01-31T16:42:12.723Z,97030.20
2019-01-31T16:44:46.054Z,97029.39
2019-01-31T16:47:19.733Z,97032.16
2019-01-31T16:49:52.846Z,97024.66
2019-01-31T16:52:25.823Z,97034.34
2019-01-31T16:54:58.794Z,97029.09
2019-01-31T16:57:33.233Z,97027.52
2019-01-31T17:00:09.390Z,97026.91
2019-01-31T17:02:40.805Z,97028.39
2019-01-31T17:05:18.615Z,97025.77
2019-01-31T17:07:50.800Z,97021.53
2019-01-31T17:10:24.550Z,97017.89
2019-01-31T17:12:56.103Z,97020.89
2019-01-31T17:15:29.022Z,97025.03
2019-01-31T17:18:00.892Z,97020.96
2019-01-31T17:20:43.773Z,97019.28
2019-01-31T17:23:17.854Z,97018.20
2019-01-31T17:25:49.189Z,97021.25
2019-01-31T17:28:23.081Z,97025.34
2019-01-31T17:30:56.902Z,97029.41
2019-01-31T17:33:29.073Z,97029.98
2019-01-31T17:36:02.107Z,97037.12
2019-01-31T17:38:36.210Z,97041.03
2019-01-31T17:41:09.869Z,97032.02
2019-01-31T17:43:44.084Z,97030.31
2019-01-31T17:46:20.918Z,97036.21
2019-01-31T17:48:54.925Z,97042.10
2019-01-31T17:51:28.812Z,97040.99
2019-01-31T17:54:03.052Z,97038.72
2019-01-31T17:56:36.102Z,97043.30
2019-01-31T17:59:08.045Z,97046.27
2019-01-31T18:01:41.498Z,97049.81
2019-01-31T18:04:15.351Z,97050.23
2019-01-31T18:06:47.318Z,97051.39
2019-01-31T18:09:20.223Z,97056.93
2019-01-31T18:11:51.564Z,97063.31
2019-01-31T18:14:23.075Z,97066.36
2019-01-31T18:16:56.213Z,97060.31
2019-01-31T18:19:30.142Z,97060.51
2019-01-31T18:22:04.131Z,97056.58
2019-01-31T18:24:38.100Z,97064.16
2019-01-31T18:27:13.708Z,97063.12
2019-01-31T18:29:46.203Z,97060.59
2019-01-31T18:32:20.352Z,97058.74
2019-01-31T18:34:54.333Z,97059.55
2019-01-31T18:37:26.346Z,97064.55
2019-01-31T18:39:57.644Z,97055.31
2019-01-31T18:42:29.259Z,97055.31
2019-01-31T18:45:02.338Z,97060.36
2019-01-31T18:47:35.331Z,97056.20
2019-01-31T18:50:09.410Z,97054.97
2019-01-31T18:52:43.324Z,97051.93
2019-01-31T18:55:17.421Z,97061.75
2019-01-31T18:57:51.259Z,97055.74
2019-01-31T19:00:25.999Z,97056.43
2019-01-31T19:02:59.386Z,97062.55
2019-01-31T19:05:31.845Z,97070.83
2019-01-31T19:08:08.831Z,97074.64
2019-01-31T19:10:43.773Z,97076.83
2019-01-31T19:13:14.402Z,97076.83
2019-01-31T19:15:48.104Z,97072.75
2019-01-31T19:18:24.112Z,97074.44
2019-01-31T19:20:56.327Z,97081.79
2019-01-31T19:23:29.522Z,97072.13
2019-01-31T19:26:01.487Z,97072.77
2019-01-31T19:28:35.508Z,97070.30
2019-01-31T19:31:07.058Z,97075.54
2019-01-31T19:33:40.794Z,97076.84
2019-01-31T19:36:14.599Z,97071.61
2019-01-31T19:38:48.692Z,97073.95
2019-01-31T19:41:22.893Z,97064.48
2019-01-31T19:43:55.141Z,97068.36
2019-01-31T19:46:26.609Z,97062.01
2019-01-31T19:48:58.565Z,97061.00
2019-01-31T19:51:31.443Z,97063.89
2019-01-31T19:54:03.493Z,97058.22
2019-01-31T19:56:35.979Z,97058.66
2019-01-31T19:59:08.698Z,97063.89
2019-01-31T20:01:44.298Z,97061.14
2019-01-31T20:04:16.731Z,97062.83
2019-01-31T20:06:51.289Z,97061.87
2019-01-31T20:09:27.620Z,97053.88
2019-01-31T20:11:59.651Z,97050.75
2019-01-31T20:14:32.618Z,97058.67
2019-01-31T20:17:08.511Z,97060.73
2019-01-31T20:19:40.829Z,97055.31
2019-01-31T20:22:12.099Z,97060.20
2019-01-31T20:24:45.898Z,97063.78
2019-01-31T20:27:17.300Z,97062.11
2019-01-31T20:29:50.818Z,97068.29
2019-01-31T20:32:23.106Z,97075.72
2019-01-31T20:34:56.831Z,97068.16
2019-01-31T20:37:29.815Z,97066.75
2019-01-31T20:40:04.589Z,97071.48
2019-01-31T20:42:39.432Z,97078.04
2019-01-31T20:45:14.021Z,97081.27
2019-01-31T20:47:47.721Z,97082.84
2019-01-31T20:50:22.516Z,97082.58
2019-01-31T20:52:56.395Z,97077.75
2019-01-31T20:55:30.036Z,97066.90
2019-01-31T20:58:03.967Z,97070.19
2019-01-31T21:00:45.958Z,97070.62
2019-01-31T21:03:18.815Z,97058.39
2019-01-31T21:05:51.829Z,97057.52
2019-01-31T21:08:23.276Z,97060.73
2019-01-31T21:10:56.963Z,97061.30
2019-01-31T21:13:29.033Z,97063.62
2019-01-31T21:16:01.900Z,97056.50
2019-01-31T21:18:33.240Z,97054.46
2019-01-31T21:21:05.396Z,97052.70
2019-01-31T21:23:37.882Z,97046.08
2019-01-31T21:26:13.694Z,97041.08
2019-01-31T21:28:46.871Z,97035.23
2019-01-31T21:31:20.024Z,97038.02
2019-01-31T21:33:51.303Z,97029.05
2019-01-31T21:36:23.100Z,97022.29
2019-01-31T21:38:56.045Z,97023.16
2019-01-31T21:41:29.023Z,97023.39
2019-01-31T21:44:01.122Z,97024.32
2019-01-31T21:46:35.243Z,97016.16
2019-01-31T21:49:09.272Z,97036.69
2019-01-31T21:51:43.139Z,97028.25
2019-01-31T21:54:17.012Z,97022.86
2019-01-31T21:56:48.462Z,97034.06
2019-01-31T21:59:22.165Z,97014.05
2019-01-31T22:01:56.147Z,97024.25
2019-01-31T22:04:29.258Z,97029.11
2019-01-31T22:07:01.269Z,97017.20
2019-01-31T22:09:35.302Z,97003.92
2019-01-31T22:12:08.849Z,96996.00
2019-01-31T22:14:40.116Z,96998.48
2019-01-31T22:17:14.877Z,97004.30
2019-01-31T22:19:47.898Z,96991.44
2019-01-31T22:22:19.162Z,96995.36
2019-01-31T22:24:53.172Z,96999.73
2019-01-31T22:27:26.243Z,97008.97
2019-01-31T22:29:58.334Z,97004.60
2019-01-31T22:32:33.691Z,97001.90
2019-01-31T22:35:07.240Z,96995.00
2019-01-31T22:37:40.459Z,97000.15
2019-01-31T22:40:13.924Z,96996.66
2019-01-31T22:42:45.211Z,96993.45
2019-01-31T22:45:21.972Z,96994.56
2019-01-31T22:47:53.333Z,96986.91
2019-01-31T22:50:26.418Z,96976.29
2019-01-31T22:52:58.362Z,96974.81
2019-01-31T22:55:32.381Z,96990.84
2019-01-31T22:58:05.993Z,96988.28
2019-01-31T23:01:09.728Z,96984.58
2019-01-31T23:03:42.225Z,96993.62
2019-01-31T23:06:17.928Z,96982.78
2019-01-31T23:08:49.606Z,96981.91
2019-01-31T23:11:23.704Z,96980.66
2019-01-31T23:13:57.503Z,96972.06
2019-01-31T23:16:31.272Z,96966.75
2019-01-31T23:19:06.525Z,96980.22
2019-01-31T23:21:39.334Z,96972.66
2019-01-31T23:24:12.727Z,96962.89
2019-01-31T23:26:48.343Z,96960.84
2019-01-31T23:29:20.534Z,96958.22
2019-01-31T23:31:54.220Z,96950.36
2019-01-31T23:34:26.122Z,96944.48
2019-01-31T23:36:57.402Z,96937.13
2019-01-31T23:39:33.217Z,96932.26
2019-01-31T23:42:04.492Z,96930.88
2019-01-31T23:44:40.177Z,96936.39
2019-01-31T23:47:13.034Z,96940.19
2019-01-31T23:49:44.283Z,96927.31
2019-01-31T23:52:15.646Z,96931.39
2019-01-31T23:54:48.558Z,96933.50
2019-01-31T23:57:19.815Z,96926.34
2019-01-31T23:59:51.118Z,96930.58
